sensor_id;sensor_type;location;lat;lon;timestamp;temperature;humidity
20795;DHT22;28087;-33.874;151.240;2023-03-31T00:01:12;25.70;40.70
20795;DHT22;28087;-33.874;151.240;2023-03-31T00:03:48;25.90;41.00
20795;DHT22;28087;-33.874;151.240;2023-03-31T00:06:35;25.90;40.20
20795;DHT22;28087;-33.874;151.240;2023-03-31T00:09:12;26.10;40.00
20795;DHT22;28087;-33.874;151.240;2023-03-31T00:11:49;26.30;40.00
20795;DHT22;28087;-33.874;151.240;2023-03-31T00:14:23;26.50;40.00
20795;DHT22;28087;-33.874;151.240;2023-03-31T00:16:58;26.50;39.80
20795;DHT22;28087;-33.874;151.240;2023-03-31T00:19:34;26.50;39.70
20795;DHT22;28087;-33.874;151.240;2023-03-31T00:22:10;26.50;39.70
20795;DHT22;28087;-33.874;151.240;2023-03-31T00:24:44;26.80;39.30
20795;DHT22;28087;-33.874;151.240;2023-03-31T00:27:19;26.80;39.00
20795;DHT22;28087;-33.874;151.240;2023-03-31T00:29:53;26.70;39.30
20795;DHT22;28087;-33.874;151.240;2023-03-31T00:32:27;26.90;39.20
20795;DHT22;28087;-33.874;151.240;2023-03-31T00:35:05;26.50;37.90
20795;DHT22;28087;-33.874;151.240;2023-03-31T00:37:39;26.70;37.90
20795;DHT22;28087;-33.874;151.240;2023-03-31T00:40:16;26.80;37.90
20795;DHT22;28087;-33.874;151.240;2023-03-31T00:42:50;26.70;38.30
20795;DHT22;28087;-33.874;151.240;2023-03-31T00:45:25;26.90;38.20
20795;DHT22;28087;-33.874;151.240;2023-03-31T00:48:03;27.10;38.10
20795;DHT22;28087;-33.874;151.240;2023-03-31T00:50:43;27.10;37.30
20795;DHT22;28087;-33.874;151.240;2023-03-31T00:53:21;26.90;36.20
20795;DHT22;28087;-33.874;151.240;2023-03-31T00:55:58;26.60;37.00
20795;DHT22;28087;-33.874;151.240;2023-03-31T00:58:35;26.60;38.00
20795;DHT22;28087;-33.874;151.240;2023-03-31T01:01:15;26.80;36.30
20795;DHT22;28087;-33.874;151.240;2023-03-31T01:03:50;27.00;36.90
20795;DHT22;28087;-33.874;151.240;2023-03-31T01:06:26;27.30;35.70
20795;DHT22;28087;-33.874;151.240;2023-03-31T01:09:02;27.10;36.60
20795;DHT22;28087;-33.874;151.240;2023-03-31T01:11:38;27.30;36.90
20795;DHT22;28087;-33.874;151.240;2023-03-31T01:14:13;27.50;35.90
20795;DHT22;28087;-33.874;151.240;2023-03-31T01:16:47;27.50;36.10
20795;DHT22;28087;-33.874;151.240;2023-03-31T01:19:29;27.50;36.50
20795;DHT22;28087;-33.874;151.240;2023-03-31T01:22:26;27.40;36.40
20795;DHT22;28087;-33.874;151.240;2023-03-31T01:25:14;27.70;36.60
20795;DHT22;28087;-33.874;151.240;2023-03-31T01:27:58;27.90;36.20
20795;DHT22;28087;-33.874;151.240;2023-03-31T01:30:55;28.10;36.00
20795;DHT22;28087;-33.874;151.240;2023-03-31T01:42:09;28.40;34.00
20795;DHT22;28087;-33.874;151.240;2023-03-31T01:44:47;28.40;36.00
20795;DHT22;28087;-33.874;151.240;2023-03-31T01:47:25;28.60;35.40
20795;DHT22;28087;-33.874;151.240;2023-03-31T01:50:03;28.90;35.70
20795;DHT22;28087;-33.874;151.240;2023-03-31T01:52:40;28.80;35.10
20795;DHT22;28087;-33.874;151.240;2023-03-31T01:55:17;28.70;33.80
20795;DHT22;28087;-33.874;151.240;2023-03-31T01:57:59;28.60;33.80
20795;DHT22;28087;-33.874;151.240;2023-03-31T02:00:37;28.40;34.50
20795;DHT22;28087;-33.874;151.240;2023-03-31T02:03:14;28.60;33.90
20795;DHT22;28087;-33.874;151.240;2023-03-31T02:05:50;28.70;34.20
20795;DHT22;28087;-33.874;151.240;2023-03-31T02:08:26;28.30;33.90
20795;DHT22;28087;-33.874;151.240;2023-03-31T02:11:02;28.30;34.50
20795;DHT22;28087;-33.874;151.240;2023-03-31T02:13:40;28.60;35.10
20795;DHT22;28087;-33.874;151.240;2023-03-31T02:16:16;28.70;35.10
20795;DHT22;28087;-33.874;151.240;2023-03-31T02:18:54;28.80;34.90
20795;DHT22;28087;-33.874;151.240;2023-03-31T02:21:33;28.50;34.30
20795;DHT22;28087;-33.874;151.240;2023-03-31T02:24:10;28.70;35.10
20795;DHT22;28087;-33.874;151.240;2023-03-31T02:26:46;28.70;34.40
20795;DHT22;28087;-33.874;151.240;2023-03-31T02:29:24;28.80;34.80
20795;DHT22;28087;-33.874;151.240;2023-03-31T02:32:00;28.80;35.50
20795;DHT22;28087;-33.874;151.240;2023-03-31T02:34:37;29.00;35.60
20795;DHT22;28087;-33.874;151.240;2023-03-31T02:37:11;28.70;35.70
20795;DHT22;28087;-33.874;151.240;2023-03-31T02:39:46;28.50;34.60
20795;DHT22;28087;-33.874;151.240;2023-03-31T02:42:22;28.60;33.90
20795;DHT22;28087;-33.874;151.240;2023-03-31T02:45:02;28.50;33.60
20795;DHT22;28087;-33.874;151.240;2023-03-31T02:47:37;28.50;35.20
20795;DHT22;28087;-33.874;151.240;2023-03-31T02:50:12;28.50;36.40
20795;DHT22;28087;-33.874;151.240;2023-03-31T02:52:49;28.40;36.20
20795;DHT22;28087;-33.874;151.240;2023-03-31T03:01:20;28.90;35.20
20795;DHT22;28087;-33.874;151.240;2023-03-31T03:04:00;28.90;35.30
20795;DHT22;28087;-33.874;151.240;2023-03-31T03:06:41;28.90;35.20
20795;DHT22;28087;-33.874;151.240;2023-03-31T03:09:26;28.70;35.40
20795;DHT22;28087;-33.874;151.240;2023-03-31T03:12:08;28.80;35.50
20795;DHT22;28087;-33.874;151.240;2023-03-31T03:14:46;28.70;35.50
20795;DHT22;28087;-33.874;151.240;2023-03-31T03:17:25;28.50;35.90
20795;DHT22;28087;-33.874;151.240;2023-03-31T03:20:01;28.40;35.70
20795;DHT22;28087;-33.874;151.240;2023-03-31T03:22:38;28.50;36.00
20795;DHT22;28087;-33.874;151.240;2023-03-31T03:25:14;28.70;35.80
20795;DHT22;28087;-33.874;151.240;2023-03-31T03:27:50;28.70;35.20
20795;DHT22;28087;-33.874;151.240;2023-03-31T03:30:25;28.60;35.40
20795;DHT22;28087;-33.874;151.240;2023-03-31T03:33:03;28.60;35.30
20795;DHT22;28087;-33.874;151.240;2023-03-31T03:35:37;28.50;35.70
20795;DHT22;28087;-33.874;151.240;2023-03-31T03:38:11;28.60;35.60
20795;DHT22;28087;-33.874;151.240;2023-03-31T03:40:46;28.50;35.60
20795;DHT22;28087;-33.874;151.240;2023-03-31T03:43:21;28.70;35.50
20795;DHT22;28087;-33.874;151.240;2023-03-31T03:45:55;28.60;35.60
20795;DHT22;28087;-33.874;151.240;2023-03-31T03:48:32;28.50;35.70
20795;DHT22;28087;-33.874;151.240;2023-03-31T03:51:07;28.50;35.30
20795;DHT22;28087;-33.874;151.240;2023-03-31T03:53:41;28.30;35.40
20795;DHT22;28087;-33.874;151.240;2023-03-31T03:56:15;28.40;35.70
20795;DHT22;28087;-33.874;151.240;2023-03-31T03:58:52;28.50;35.70
20795;DHT22;28087;-33.874;151.240;2023-03-31T04:01:26;28.60;35.60
20795;DHT22;28087;-33.874;151.240;2023-03-31T04:04:03;27.80;36.20
20795;DHT22;28087;-33.874;151.240;2023-03-31T04:06:37;27.60;37.20
20795;DHT22;28087;-33.874;151.240;2023-03-31T04:09:12;27.80;37.00
20795;DHT22;28087;-33.874;151.240;2023-03-31T04:11:46;28.20;36.50
20795;DHT22;28087;-33.874;151.240;2023-03-31T04:14:20;28.30;35.80
20795;DHT22;28087;-33.874;151.240;2023-03-31T04:16:55;28.30;35.70
20795;DHT22;28087;-33.874;151.240;2023-03-31T04:19:32;28.50;35.50
20795;DHT22;28087;-33.874;151.240;2023-03-31T04:22:08;28.50;35.20
20795;DHT22;28087;-33.874;151.240;2023-03-31T04:24:45;28.50;35.30
20795;DHT22;28087;-33.874;151.240;2023-03-31T04:27:22;28.60;35.60
20795;DHT22;28087;-33.874;151.240;2023-03-31T04:29:57;28.50;35.40
20795;DHT22;28087;-33.874;151.240;2023-03-31T04:32:31;28.30;35.80
20795;DHT22;28087;-33.874;151.240;2023-03-31T04:35:09;28.30;36.10
20795;DHT22;28087;-33.874;151.240;2023-03-31T04:37:45;28.20;35.90
20795;DHT22;28087;-33.874;151.240;2023-03-31T04:40:19;28.20;36.10
20795;DHT22;28087;-33.874;151.240;2023-03-31T04:42:53;28.00;36.40
20795;DHT22;28087;-33.874;151.240;2023-03-31T04:45:27;27.90;36.70
20795;DHT22;28087;-33.874;151.240;2023-03-31T04:48:01;27.90;36.50
20795;DHT22;28087;-33.874;151.240;2023-03-31T04:50:39;27.90;36.70
20795;DHT22;28087;-33.874;151.240;2023-03-31T04:53:13;27.80;36.40
20795;DHT22;28087;-33.874;151.240;2023-03-31T04:55:48;27.70;36.50
20795;DHT22;28087;-33.874;151.240;2023-03-31T04:58:23;27.70;37.10
20795;DHT22;28087;-33.874;151.240;2023-03-31T05:00:57;27.70;37.20
20795;DHT22;28087;-33.874;151.240;2023-03-31T05:03:31;27.60;37.10
20795;DHT22;28087;-33.874;151.240;2023-03-31T05:06:08;27.30;37.70
20795;DHT22;28087;-33.874;151.240;2023-03-31T05:08:42;27.40;37.60
20795;DHT22;28087;-33.874;151.240;2023-03-31T05:11:17;27.20;37.50
20795;DHT22;28087;-33.874;151.240;2023-03-31T05:13:51;27.20;37.70
20795;DHT22;28087;-33.874;151.240;2023-03-31T05:16:25;27.20;37.30
20795;DHT22;28087;-33.874;151.240;2023-03-31T05:18:59;27.00;37.10
20795;DHT22;28087;-33.874;151.240;2023-03-31T05:21:36;26.90;37.10
20795;DHT22;28087;-33.874;151.240;2023-03-31T05:24:10;26.80;37.30
20795;DHT22;28087;-33.874;151.240;2023-03-31T05:26:44;26.80;36.90
20795;DHT22;28087;-33.874;151.240;2023-03-31T05:29:22;26.70;36.90
20795;DHT22;28087;-33.874;151.240;2023-03-31T05:31:56;26.50;36.70
20795;DHT22;28087;-33.874;151.240;2023-03-31T05:34:30;26.50;36.80
20795;DHT22;28087;-33.874;151.240;2023-03-31T05:37:07;26.30;36.50
20795;DHT22;28087;-33.874;151.240;2023-03-31T05:39:40;26.10;37.70
20795;DHT22;28087;-33.874;151.240;2023-03-31T05:42:15;25.90;38.40
20795;DHT22;28087;-33.874;151.240;2023-03-31T05:44:49;25.80;38.30
20795;DHT22;28087;-33.874;151.240;2023-03-31T05:47:22;25.50;38.70
20795;DHT22;28087;-33.874;151.240;2023-03-31T05:49:56;25.60;39.10
20795;DHT22;28087;-33.874;151.240;2023-03-31T05:52:33;25.40;38.90
20795;DHT22;28087;-33.874;151.240;2023-03-31T05:55:08;25.20;39.20
20795;DHT22;28087;-33.874;151.240;2023-03-31T05:57:43;25.10;39.20
20795;DHT22;28087;-33.874;151.240;2023-03-31T06:00:17;25.20;39.40
20795;DHT22;28087;-33.874;151.240;2023-03-31T06:02:51;25.20;39.20
20795;DHT22;28087;-33.874;151.240;2023-03-31T06:05:26;25.30;39.20
20795;DHT22;28087;-33.874;151.240;2023-03-31T06:08:03;25.40;39.10
20795;DHT22;28087;-33.874;151.240;2023-03-31T06:10:37;25.40;39.40
20795;DHT22;28087;-33.874;151.240;2023-03-31T06:13:12;25.20;40.50
20795;DHT22;28087;-33.874;151.240;2023-03-31T06:15:52;25.10;40.50
20795;DHT22;28087;-33.874;151.240;2023-03-31T06:18:26;25.10;40.60
20795;DHT22;28087;-33.874;151.240;2023-03-31T06:21:00;25.10;41.00
20795;DHT22;28087;-33.874;151.240;2023-03-31T06:23:38;25.10;41.30
20795;DHT22;28087;-33.874;151.240;2023-03-31T06:26:15;24.80;41.80
20795;DHT22;28087;-33.874;151.240;2023-03-31T06:28:49;24.90;41.70
20795;DHT22;28087;-33.874;151.240;2023-03-31T06:31:23;24.70;42.60
20795;DHT22;28087;-33.874;151.240;2023-03-31T06:33:57;24.50;42.90
20795;DHT22;28087;-33.874;151.240;2023-03-31T06:36:31;24.60;42.90
20795;DHT22;28087;-33.874;151.240;2023-03-31T06:39:08;24.70;42.80
20795;DHT22;28087;-33.874;151.240;2023-03-31T06:41:42;24.50;42.90
20795;DHT22;28087;-33.874;151.240;2023-03-31T06:44:26;24.40;42.90
20795;DHT22;28087;-33.874;151.240;2023-03-31T06:47:00;24.30;43.10
20795;DHT22;28087;-33.874;151.240;2023-03-31T06:49:34;24.20;43.20
20795;DHT22;28087;-33.874;151.240;2023-03-31T06:52:08;24.40;43.20
20795;DHT22;28087;-33.874;151.240;2023-03-31T06:54:45;24.50;42.90
20795;DHT22;28087;-33.874;151.240;2023-03-31T06:57:19;24.60;43.00
20795;DHT22;28087;-33.874;151.240;2023-03-31T06:59:53;24.70;42.90
20795;DHT22;28087;-33.874;151.240;2023-03-31T07:02:28;24.70;43.20
20795;DHT22;28087;-33.874;151.240;2023-03-31T07:05:02;24.40;43.50
20795;DHT22;28087;-33.874;151.240;2023-03-31T07:07:37;24.50;43.60
20795;DHT22;28087;-33.874;151.240;2023-03-31T07:10:16;24.50;43.70
20795;DHT22;28087;-33.874;151.240;2023-03-31T07:12:50;24.50;43.80
20795;DHT22;28087;-33.874;151.240;2023-03-31T07:15:26;24.50;44.10
20795;DHT22;28087;-33.874;151.240;2023-03-31T07:18:00;24.50;44.20
20795;DHT22;28087;-33.874;151.240;2023-03-31T07:20:34;24.30;44.70
20795;DHT22;28087;-33.874;151.240;2023-03-31T07:23:08;24.10;45.10
20795;DHT22;28087;-33.874;151.240;2023-03-31T07:25:46;24.20;44.80
20795;DHT22;28087;-33.874;151.240;2023-03-31T07:28:20;24.10;44.90
20795;DHT22;28087;-33.874;151.240;2023-03-31T07:30:54;24.20;45.00
20795;DHT22;28087;-33.874;151.240;2023-03-31T07:33:28;24.40;44.90
20795;DHT22;28087;-33.874;151.240;2023-03-31T07:36:03;24.30;44.90
20795;DHT22;28087;-33.874;151.240;2023-03-31T07:38:42;24.00;45.60
20795;DHT22;28087;-33.874;151.240;2023-03-31T07:41:19;24.10;45.90
20795;DHT22;28087;-33.874;151.240;2023-03-31T07:43:53;23.90;45.90
20795;DHT22;28087;-33.874;151.240;2023-03-31T07:46:28;23.90;46.00
20795;DHT22;28087;-33.874;151.240;2023-03-31T07:49:02;24.00;45.70
20795;DHT22;28087;-33.874;151.240;2023-03-31T07:51:37;23.90;46.00
20795;DHT22;28087;-33.874;151.240;2023-03-31T07:54:11;24.00;46.00
20795;DHT22;28087;-33.874;151.240;2023-03-31T07:56:50;24.10;46.30
20795;DHT22;28087;-33.874;151.240;2023-03-31T07:59:24;24.20;46.20
20795;DHT22;28087;-33.874;151.240;2023-03-31T08:01:58;24.40;46.10
20795;DHT22;28087;-33.874;151.240;2023-03-31T08:04:32;24.40;46.30
20795;DHT22;28087;-33.874;151.240;2023-03-31T08:07:07;24.40;46.20
20795;DHT22;28087;-33.874;151.240;2023-03-31T08:09:42;24.30;46.00
20795;DHT22;28087;-33.874;151.240;2023-03-31T08:12:19;24.10;46.10
20795;DHT22;28087;-33.874;151.240;2023-03-31T08:14:53;24.10;46.00
20795;DHT22;28087;-33.874;151.240;2023-03-31T08:17:27;24.10;46.10
20795;DHT22;28087;-33.874;151.240;2023-03-31T08:20:01;24.20;46.10
20795;DHT22;28087;-33.874;151.240;2023-03-31T08:22:37;24.20;46.00
20795;DHT22;28087;-33.874;151.240;2023-03-31T08:25:12;24.20;45.80
20795;DHT22;28087;-33.874;151.240;2023-03-31T08:27:48;23.90;46.30
20795;DHT22;28087;-33.874;151.240;2023-03-31T08:30:23;23.90;46.20
20795;DHT22;28087;-33.874;151.240;2023-03-31T08:32:57;23.90;46.40
20795;DHT22;28087;-33.874;151.240;2023-03-31T08:35:31;24.00;46.50
20795;DHT22;28087;-33.874;151.240;2023-03-31T08:38:06;24.00;47.40
20795;DHT22;28087;-33.874;151.240;2023-03-31T08:40:40;23.90;47.30
20795;DHT22;28087;-33.874;151.240;2023-03-31T08:43:17;23.80;47.50
20795;DHT22;28087;-33.874;151.240;2023-03-31T08:45:54;23.70;47.50
20795;DHT22;28087;-33.874;151.240;2023-03-31T08:48:29;23.70;48.20
20795;DHT22;28087;-33.874;151.240;2023-03-31T08:51:06;23.60;48.50
20795;DHT22;28087;-33.874;151.240;2023-03-31T08:53:45;23.60;48.40
20795;DHT22;28087;-33.874;151.240;2023-03-31T08:56:20;23.50;48.90
20795;DHT22;28087;-33.874;151.240;2023-03-31T08:58:58;23.50;48.90
20795;DHT22;28087;-33.874;151.240;2023-03-31T09:01:37;23.50;49.50
20795;DHT22;28087;-33.874;151.240;2023-03-31T09:04:40;23.50;49.40
20795;DHT22;28087;-33.874;151.240;2023-03-31T09:07:18;23.60;49.10
20795;DHT22;28087;-33.874;151.240;2023-03-31T09:10:10;23.50;48.90
20795;DHT22;28087;-33.874;151.240;2023-03-31T09:12:51;23.50;49.10
20795;DHT22;28087;-33.874;151.240;2023-03-31T09:15:47;23.60;49.00
20795;DHT22;28087;-33.874;151.240;2023-03-31T09:18:25;23.50;48.80
20795;DHT22;28087;-33.874;151.240;2023-03-31T09:21:15;23.50;49.00
20795;DHT22;28087;-33.874;151.240;2023-03-31T09:23:50;23.50;49.30
20795;DHT22;28087;-33.874;151.240;2023-03-31T09:26:40;23.40;50.50
20795;DHT22;28087;-33.874;151.240;2023-03-31T09:29:16;23.30;50.00
20795;DHT22;28087;-33.874;151.240;2023-03-31T09:31:56;23.20;50.50
20795;DHT22;28087;-33.874;151.240;2023-03-31T09:34:38;23.20;50.70
20795;DHT22;28087;-33.874;151.240;2023-03-31T09:37:16;23.20;50.80
20795;DHT22;28087;-33.874;151.240;2023-03-31T09:39:50;23.10;51.30
20795;DHT22;28087;-33.874;151.240;2023-03-31T09:42:25;23.00;51.60
20795;DHT22;28087;-33.874;151.240;2023-03-31T09:45:00;23.10;51.30
20795;DHT22;28087;-33.874;151.240;2023-03-31T09:47:37;23.00;51.30
20795;DHT22;28087;-33.874;151.240;2023-03-31T09:50:12;22.90;52.20
20795;DHT22;28087;-33.874;151.240;2023-03-31T09:52:53;23.00;51.80
20795;DHT22;28087;-33.874;151.240;2023-03-31T09:55:30;23.00;51.50
20795;DHT22;28087;-33.874;151.240;2023-03-31T09:58:11;23.10;51.10
20795;DHT22;28087;-33.874;151.240;2023-03-31T10:00:55;23.10;51.00
20795;DHT22;28087;-33.874;151.240;2023-03-31T10:03:33;23.10;51.10
20795;DHT22;28087;-33.874;151.240;2023-03-31T10:06:14;23.10;51.10
20795;DHT22;28087;-33.874;151.240;2023-03-31T10:08:49;23.00;51.10
20795;DHT22;28087;-33.874;151.240;2023-03-31T10:11:24;23.10;51.00
20795;DHT22;28087;-33.874;151.240;2023-03-31T10:14:00;23.10;51.00
20795;DHT22;28087;-33.874;151.240;2023-03-31T10:16:42;23.10;50.90
20795;DHT22;28087;-33.874;151.240;2023-03-31T10:19:20;23.00;51.30
20795;DHT22;28087;-33.874;151.240;2023-03-31T10:21:57;23.00;51.10
20795;DHT22;28087;-33.874;151.240;2023-03-31T10:24:38;23.10;51.50
20795;DHT22;28087;-33.874;151.240;2023-03-31T10:27:15;23.10;51.80
20795;DHT22;28087;-33.874;151.240;2023-03-31T10:29:51;23.00;51.70
20795;DHT22;28087;-33.874;151.240;2023-03-31T10:32:26;23.10;52.20
20795;DHT22;28087;-33.874;151.240;2023-03-31T10:35:05;23.00;52.80
20795;DHT22;28087;-33.874;151.240;2023-03-31T10:37:40;22.90;52.80
20795;DHT22;28087;-33.874;151.240;2023-03-31T10:40:15;22.80;53.40
20795;DHT22;28087;-33.874;151.240;2023-03-31T10:42:58;22.80;53.00
20795;DHT22;28087;-33.874;151.240;2023-03-31T10:45:36;22.90;53.60
20795;DHT22;28087;-33.874;151.240;2023-03-31T10:48:16;22.70;54.40
20795;DHT22;28087;-33.874;151.240;2023-03-31T10:50:53;22.70;54.60
20795;DHT22;28087;-33.874;151.240;2023-03-31T10:53:27;22.70;53.80
20795;DHT22;28087;-33.874;151.240;2023-03-31T10:56:05;22.70;54.70
20795;DHT22;28087;-33.874;151.240;2023-03-31T10:58:46;22.70;54.60
20795;DHT22;28087;-33.874;151.240;2023-03-31T11:01:36;22.80;54.70
20795;DHT22;28087;-33.874;151.240;2023-03-31T11:07:08;22.80;54.90
20795;DHT22;28087;-33.874;151.240;2023-03-31T11:09:44;22.70;54.60
20795;DHT22;28087;-33.874;151.240;2023-03-31T11:12:22;22.60;55.30
20795;DHT22;28087;-33.874;151.240;2023-03-31T11:15:04;22.70;55.20
20795;DHT22;28087;-33.874;151.240;2023-03-31T11:17:47;22.60;55.00
20795;DHT22;28087;-33.874;151.240;2023-03-31T11:20:24;22.70;55.00
20795;DHT22;28087;-33.874;151.240;2023-03-31T11:23:04;22.60;54.70
20795;DHT22;28087;-33.874;151.240;2023-03-31T11:25:43;22.60;54.80
20795;DHT22;28087;-33.874;151.240;2023-03-31T11:28:25;22.70;55.20
20795;DHT22;28087;-33.874;151.240;2023-03-31T11:31:06;22.70;54.60
20795;DHT22;28087;-33.874;151.240;2023-03-31T11:37:05;22.70;55.00
20795;DHT22;28087;-33.874;151.240;2023-03-31T11:39:49;22.70;54.10
20795;DHT22;28087;-33.874;151.240;2023-03-31T11:42:26;22.60;54.60
20795;DHT22;28087;-33.874;151.240;2023-03-31T11:45:02;22.60;54.00
20795;DHT22;28087;-33.874;151.240;2023-03-31T11:47:37;22.50;54.40
20795;DHT22;28087;-33.874;151.240;2023-03-31T11:50:15;22.60;54.00
20795;DHT22;28087;-33.874;151.240;2023-03-31T11:52:52;22.60;53.50
20795;DHT22;28087;-33.874;151.240;2023-03-31T11:55:30;22.50;53.50
20795;DHT22;28087;-33.874;151.240;2023-03-31T11:58:06;22.60;53.50
20795;DHT22;28087;-33.874;151.240;2023-03-31T12:00:43;22.60;54.10
20795;DHT22;28087;-33.874;151.240;2023-03-31T12:03:20;22.40;53.20
20795;DHT22;28087;-33.874;151.240;2023-03-31T12:05:57;22.40;54.20
20795;DHT22;28087;-33.874;151.240;2023-03-31T12:08:36;22.40;54.20
20795;DHT22;28087;-33.874;151.240;2023-03-31T12:11:14;22.30;54.70
20795;DHT22;28087;-33.874;151.240;2023-03-31T12:13:49;22.30;54.60
20795;DHT22;28087;-33.874;151.240;2023-03-31T12:16:25;22.40;54.20
20795;DHT22;28087;-33.874;151.240;2023-03-31T12:19:07;22.30;53.90
20795;DHT22;28087;-33.874;151.240;2023-03-31T12:21:47;22.40;53.50
20795;DHT22;28087;-33.874;151.240;2023-03-31T12:24:22;22.30;52.70
20795;DHT22;28087;-33.874;151.240;2023-03-31T12:27:01;22.30;53.30
20795;DHT22;28087;-33.874;151.240;2023-03-31T12:29:36;22.30;54.10
20795;DHT22;28087;-33.874;151.240;2023-03-31T12:32:12;22.30;53.70
20795;DHT22;28087;-33.874;151.240;2023-03-31T12:34:49;22.30;53.20
20795;DHT22;28087;-33.874;151.240;2023-03-31T12:37:46;22.20;53.30
20795;DHT22;28087;-33.874;151.240;2023-03-31T12:40:25;22.20;53.50
20795;DHT22;28087;-33.874;151.240;2023-03-31T12:43:10;22.10;53.00
20795;DHT22;28087;-33.874;151.240;2023-03-31T12:45:49;22.10;53.00
20795;DHT22;28087;-33.874;151.240;2023-03-31T12:48:30;22.10;53.70
20795;DHT22;28087;-33.874;151.240;2023-03-31T12:51:12;22.10;54.00
20795;DHT22;28087;-33.874;151.240;2023-03-31T12:53:52;22.00;53.30
20795;DHT22;28087;-33.874;151.240;2023-03-31T12:56:35;22.10;52.90
20795;DHT22;28087;-33.874;151.240;2023-03-31T12:59:31;22.00;52.90
20795;DHT22;28087;-33.874;151.240;2023-03-31T13:02:21;22.00;52.90
20795;DHT22;28087;-33.874;151.240;2023-03-31T13:04:56;22.10;53.20
20795;DHT22;28087;-33.874;151.240;2023-03-31T13:07:38;22.00;53.00
20795;DHT22;28087;-33.874;151.240;2023-03-31T13:10:25;22.00;53.10
20795;DHT22;28087;-33.874;151.240;2023-03-31T13:13:01;22.10;52.60
20795;DHT22;28087;-33.874;151.240;2023-03-31T13:15:37;22.00;52.60
20795;DHT22;28087;-33.874;151.240;2023-03-31T13:18:12;21.90;52.40
20795;DHT22;28087;-33.874;151.240;2023-03-31T13:20:57;21.80;53.30
20795;DHT22;28087;-33.874;151.240;2023-03-31T13:23:32;21.80;53.40
20795;DHT22;28087;-33.874;151.240;2023-03-31T13:26:22;21.80;52.40
20795;DHT22;28087;-33.874;151.240;2023-03-31T13:29:16;21.90;52.60
20795;DHT22;28087;-33.874;151.240;2023-03-31T13:32:16;21.70;52.60
20795;DHT22;28087;-33.874;151.240;2023-03-31T13:34:58;21.70;52.70
20795;DHT22;28087;-33.874;151.240;2023-03-31T13:37:41;21.70;52.80
20795;DHT22;28087;-33.874;151.240;2023-03-31T13:46:07;21.60;52.90
20795;DHT22;28087;-33.874;151.240;2023-03-31T13:48:53;21.60;53.20
20795;DHT22;28087;-33.874;151.240;2023-03-31T13:51:34;21.60;52.80
20795;DHT22;28087;-33.874;151.240;2023-03-31T13:59:59;21.60;52.00
20795;DHT22;28087;-33.874;151.240;2023-03-31T14:02:47;21.60;52.90
20795;DHT22;28087;-33.874;151.240;2023-03-31T14:05:29;21.50;51.70
20795;DHT22;28087;-33.874;151.240;2023-03-31T14:08:05;21.50;52.60
20795;DHT22;28087;-33.874;151.240;2023-03-31T14:10:42;21.60;52.60
20795;DHT22;28087;-33.874;151.240;2023-03-31T14:13:16;21.50;51.90
20795;DHT22;28087;-33.874;151.240;2023-03-31T14:15:51;21.60;52.00
20795;DHT22;28087;-33.874;151.240;2023-03-31T14:18:28;21.60;52.20
20795;DHT22;28087;-33.874;151.240;2023-03-31T14:21:16;21.40;51.80
20795;DHT22;28087;-33.874;151.240;2023-03-31T14:23:56;21.50;51.70
20795;DHT22;28087;-33.874;151.240;2023-03-31T14:26:40;21.40;52.30
20795;DHT22;28087;-33.874;151.240;2023-03-31T14:29:18;21.50;52.00
20795;DHT22;28087;-33.874;151.240;2023-03-31T14:31:58;21.40;51.70
20795;DHT22;28087;-33.874;151.240;2023-03-31T14:34:39;21.40;51.90
20795;DHT22;28087;-33.874;151.240;2023-03-31T14:37:17;21.40;52.50
20795;DHT22;28087;-33.874;151.240;2023-03-31T14:39:53;21.40;52.20
20795;DHT22;28087;-33.874;151.240;2023-03-31T14:42:28;21.40;52.30
20795;DHT22;28087;-33.874;151.240;2023-03-31T14:45:06;21.40;51.90
20795;DHT22;28087;-33.874;151.240;2023-03-31T14:47:55;21.30;51.90
20795;DHT22;28087;-33.874;151.240;2023-03-31T14:50:32;21.30;52.00
20795;DHT22;28087;-33.874;151.240;2023-03-31T14:53:14;21.30;52.00
20795;DHT22;28087;-33.874;151.240;2023-03-31T14:55:48;21.20;51.50
20795;DHT22;28087;-33.874;151.240;2023-03-31T14:58:27;21.30;51.90
20795;DHT22;28087;-33.874;151.240;2023-03-31T15:01:05;21.30;51.70
20795;DHT22;28087;-33.874;151.240;2023-03-31T15:03:41;21.20;51.80
20795;DHT22;28087;-33.874;151.240;2023-03-31T15:06:15;21.30;52.20
20795;DHT22;28087;-33.874;151.240;2023-03-31T15:08:51;21.30;52.80
20795;DHT22;28087;-33.874;151.240;2023-03-31T15:11:27;21.20;52.60
20795;DHT22;28087;-33.874;151.240;2023-03-31T15:14:01;21.20;52.50
20795;DHT22;28087;-33.874;151.240;2023-03-31T15:16:35;21.10;52.60
20795;DHT22;28087;-33.874;151.240;2023-03-31T15:19:13;21.10;52.80
20795;DHT22;28087;-33.874;151.240;2023-03-31T15:21:53;21.10;53.10
20795;DHT22;28087;-33.874;151.240;2023-03-31T15:24:29;21.20;52.60
20795;DHT22;28087;-33.874;151.240;2023-03-31T15:27:04;21.20;52.70
20795;DHT22;28087;-33.874;151.240;2023-03-31T15:29:41;21.20;51.80
20795;DHT22;28087;-33.874;151.240;2023-03-31T15:32:16;21.10;52.60
20795;DHT22;28087;-33.874;151.240;2023-03-31T15:34:54;21.10;52.40
20795;DHT22;28087;-33.874;151.240;2023-03-31T15:37:40;21.10;52.80
20795;DHT22;28087;-33.874;151.240;2023-03-31T15:40:17;21.20;52.90
20795;DHT22;28087;-33.874;151.240;2023-03-31T15:42:52;21.10;52.20
20795;DHT22;28087;-33.874;151.240;2023-03-31T15:45:44;21.10;51.60
20795;DHT22;28087;-33.874;151.240;2023-03-31T15:48:23;21.20;52.90
20795;DHT22;28087;-33.874;151.240;2023-03-31T15:50:59;21.10;53.70
20795;DHT22;28087;-33.874;151.240;2023-03-31T15:53:35;21.20;52.40
20795;DHT22;28087;-33.874;151.240;2023-03-31T15:56:11;21.10;52.40
20795;DHT22;28087;-33.874;151.240;2023-03-31T15:58:59;21.20;52.30
20795;DHT22;28087;-33.874;151.240;2023-03-31T16:01:34;21.10;52.90
20795;DHT22;28087;-33.874;151.240;2023-03-31T16:04:10;21.10;52.70
20795;DHT22;28087;-33.874;151.240;2023-03-31T16:06:47;21.20;53.10
20795;DHT22;28087;-33.874;151.240;2023-03-31T16:09:22;21.00;52.50
20795;DHT22;28087;-33.874;151.240;2023-03-31T16:11:59;21.00;52.20
20795;DHT22;28087;-33.874;151.240;2023-03-31T16:14:35;21.00;52.60
20795;DHT22;28087;-33.874;151.240;2023-03-31T16:17:11;21.10;52.20
20795;DHT22;28087;-33.874;151.240;2023-03-31T16:19:47;21.00;52.90
20795;DHT22;28087;-33.874;151.240;2023-03-31T16:22:23;21.10;52.90